Cotton Plant, Arkansas
Current Conditions -  °F | °C
As of 3:56 PM on Thursday 18 Dec 2014 (Local Time) from KSRC Reporting Station
Haze Haze  
Wind Chill: 41°   Ceiling: 500
Heat Index: 41°   Visibility: 5mi
Dew Point: 39°   Wind: 3mph
Humidity: 93%   Direction: 40°NE
Pressure: 30.21"   Gusts: NA
Location:  35.01°N, 91.25°W
Report Text: KSRC 182156Z AUTO 04003KT 5SM BR OVC005 05/04 A3021 RMK AO2 SLP239 T00500039 TSNO
Loading
Personal Weather Stations






























Interactive Weather Map New forecast layout! Learn more

10-Day Weather Forecast

Advertisements
Track Severe Weather on mobile